Time;durP1;ratioP1;P1;durP2;ratioP2;P2;SDS_P1;SDS_P2;PMS_P1;PMS_P2;Temp;Humidity;BMP_temperature;BMP_pressure;BME280_temperature;BME280_humidity;BME280_pressure;Samples;Min_cycle;Max_cycle;Signal;HPM_P1;HPM_P2
2022/11/16 00:01:01;;;;;;;17.83;12.38;;;;;;;11.14;100.00;99695.56;5021754;28;20592;-66
2022/11/16 00:03:28;;;;;;;19.85;12.63;;;;;;;11.14;100.00;99692.94;5026341;28;20028;-65
2022/11/16 00:05:55;;;;;;;17.98;12.45;;;;;;;11.16;100.00;99684.16;5035539;28;20117;-65
2022/11/16 00:08:20;;;;;;;20.60;12.98;;;;;;;11.19;100.00;99684.16;5039344;28;20033;-66
2022/11/16 00:10:46;;;;;;;20.30;13.60;;;;;;;11.21;100.00;99690.28;5026731;28;20022;-66
2022/11/16 00:13:11;;;;;;;20.45;14.00;;;;;;;11.23;100.00;99676.25;5040940;28;20370;-65
2022/11/16 00:15:36;;;;;;;18.65;11.90;;;;;;;11.26;100.00;99675.34;5048962;28;20100;-65
2022/11/16 00:18:01;;;;;;;18.60;12.90;;;;;;;11.28;100.00;99673.56;5041004;28;20074;-65
2022/11/16 00:20:27;;;;;;;19.58;12.95;;;;;;;11.29;100.00;99681.47;5050257;28;20033;-65
2022/11/16 00:22:52;;;;;;;23.05;14.23;;;;;;;11.28;100.00;99678.84;5038168;28;20026;-66
2022/11/16 00:25:18;;;;;;;24.55;14.20;;;;;;;11.28;100.00;99682.34;5034058;28;20029;-66
2022/11/16 00:27:43;;;;;;;23.45;15.20;;;;;;;11.27;100.00;99679.72;5035779;28;20099;-65
2022/11/16 00:30:09;;;;;;;21.75;14.38;;;;;;;11.27;100.00;99682.34;5026116;28;20026;-66
2022/11/16 00:32:34;;;;;;;23.23;14.20;;;;;;;11.28;100.00;99684.09;5024209;28;20499;-65
2022/11/16 00:35:00;;;;;;;23.20;15.25;;;;;;;11.30;100.00;99687.63;5030196;28;20030;-66
2022/11/16 00:37:25;;;;;;;23.85;15.32;;;;;;;11.32;100.00;99685.84;5034171;28;20034;-65
2022/11/16 00:39:50;;;;;;;23.48;15.55;;;;;;;11.32;100.00;99685.84;5037607;28;20388;-65
2022/11/16 00:42:16;;;;;;;22.60;15.25;;;;;;;11.33;100.00;99692.88;5039563;28;20029;-66
2022/11/16 00:44:41;;;;;;;25.88;16.58;;;;;;;11.32;100.00;99691.09;5040899;28;20397;-66
2022/11/16 00:47:06;;;;;;;23.42;15.43;;;;;;;11.29;100.00;99689.34;5026141;28;20040;-66
2022/11/16 00:49:32;;;;;;;25.58;16.00;;;;;;;11.32;100.00;99684.97;5032882;28;20037;-66
2022/11/16 00:51:57;;;;;;;26.75;17.70;;;;;;;11.33;100.00;99684.97;5038697;28;20033;-65
2022/11/16 00:54:23;;;;;;;22.80;16.73;;;;;;;11.35;100.00;99684.94;5042075;28;20024;-66
2022/11/16 00:56:48;;;;;;;26.67;16.77;;;;;;;11.36;100.00;99686.72;5031257;28;20069;-66
2022/11/16 00:59:13;;;;;;;28.20;17.25;;;;;;;11.36;100.00;99687.56;5020307;28;20034;-65
2022/11/16 01:01:38;;;;;;;27.00;17.23;;;;;;;11.38;100.00;99684.91;5024306;28;20480;-66
2022/11/16 01:04:04;;;;;;;27.42;16.60;;;;;;;11.38;100.00;99691.09;5017188;28;20029;-64
2022/11/16 01:06:29;;;;;;;30.50;18.70;;;;;;;11.35;100.00;99690.22;5031378;28;20034;-64
2022/11/16 01:08:54;;;;;;;28.33;18.70;;;;;;;11.33;100.00;99687.59;5020712;28;20057;-65
2022/11/16 01:14:06;;;;;;;30.08;19.15;;;;;;;11.34;100.00;99699.00;5014248;28;20099;-65
2022/11/16 01:16:32;;;;;;;28.48;19.17;;;;;;;11.31;100.00;99691.97;5027827;28;20018;-65
2022/11/16 01:18:58;;;;;;;28.75;16.85;;;;;;;11.30;100.00;99688.47;5034356;28;20041;-65
2022/11/16 01:21:23;;;;;;;24.88;14.35;;;;;;;11.28;100.00;99689.38;5035593;28;20368;-66
2022/11/16 01:23:49;;;;;;;20.45;13.55;;;;;;;11.24;100.00;99687.63;5042391;28;20024;-64
2022/11/16 01:26:15;;;;;;;19.98;12.70;;;;;;;11.22;100.00;99692.91;5040930;28;20029;-65
2022/11/16 01:28:40;;;;;;;16.33;12.52;;;;;;;11.24;100.00;99695.53;5021257;28;20543;-66
2022/11/16 01:31:07;;;;;;;18.27;12.93;;;;;;;11.21;100.00;99687.66;5025392;28;20025;-65
2022/11/16 01:33:32;;;;;;;20.35;12.75;;;;;;;11.18;100.00;99687.66;5025640;28;20017;-66
2022/11/16 01:35:58;;;;;;;18.10;13.68;;;;;;;11.16;100.00;99685.03;5038410;28;20025;-65
2022/11/16 01:38:23;;;;;;;18.25;12.90;;;;;;;11.18;100.00;99677.13;5030309;28;20029;-65
2022/11/16 01:40:48;;;;;;;21.75;13.00;;;;;;;11.16;100.00;99684.16;5024706;28;20025;-66
2022/11/16 01:43:22;;;;;;;25.63;13.32;;;;;;;11.13;100.00;99682.41;5023161;28;20441;-65
2022/11/16 01:45:49;;;;;;;20.75;13.80;;;;;;;11.13;100.00;99680.66;5023099;28;20021;-67
2022/11/16 01:48:23;;;;;;;19.50;14.05;;;;;;;11.10;100.00;99680.66;5020099;28;20041;-66
2022/11/16 01:50:48;;;;;;;22.08;14.13;;;;;;;11.08;100.00;99684.19;5014036;28;20044;-66
2022/11/16 01:53:15;;;;;;;21.15;13.95;;;;;;;11.10;100.00;99675.41;5042461;28;20041;-66
2022/11/16 01:55:42;;;;;;;20.00;12.40;;;;;;;11.07;100.00;99678.06;5045979;28;20839;-66
2022/11/16 01:58:12;;;;;;;22.13;13.93;;;;;;;11.03;100.00;99665.78;5032783;28;20052;-66
2022/11/16 02:00:38;;;;;;;24.58;14.25;;;;;;;11.02;100.00;99671.94;5029511;28;20022;-65
2022/11/16 02:03:03;;;;;;;20.50;13.75;;;;;;;11.01;100.00;99675.44;5033635;28;20025;-65
2022/11/16 02:06:11;;;;;;;23.45;14.73;;;;;;;10.97;100.00;99673.69;5044299;28;20386;-65
2022/11/16 02:12:14;;;;;;;24.15;15.32;;;;;;;10.94;100.00;99679.00;5013895;28;20611;-65
2022/11/16 02:15:01;;;;;;;22.77;15.15;;;;;;;10.93;100.00;99671.97;5038947;28;20057;-65
2022/11/16 02:17:47;;;;;;;25.88;15.15;;;;;;;10.93;100.00;99685.13;5023258;28;20029;-65
2022/11/16 02:20:24;;;;;;;29.05;16.55;;;;;;;10.92;100.00;99684.25;5027014;28;20432;-66
2022/11/16 02:23:20;;;;;;;23.58;15.50;;;;;;;10.92;100.00;99686.91;5026149;28;20107;-66
2022/11/16 02:26:03;;;;;;;28.95;17.13;;;;;;;10.92;100.00;99693.91;5031478;28;20025;-65
2022/11/16 02:28:53;;;;;;;24.00;15.55;;;;;;;10.90;100.00;99687.78;5026865;28;20181;-66
2022/11/16 02:31:28;;;;;;;33.38;16.27;;;;;;;10.91;100.00;99685.13;5025407;28;20036;-65
2022/11/16 02:33:56;;;;;;;30.13;15.70;;;;;;;10.89;100.00;99680.75;5021685;28;20021;-65
2022/11/16 02:36:24;;;;;;;25.05;15.40;;;;;;;10.88;100.00;99673.72;5021090;28;20060;-65
2022/11/16 02:38:55;;;;;;;25.42;15.40;;;;;;;10.85;100.00;99664.13;5025014;28;20032;-66
2022/11/16 02:41:24;;;;;;;26.13;15.40;;;;;;;10.83;100.00;99670.25;5020105;28;20029;-66
2022/11/16 02:44:07;;;;;;;31.48;16.63;;;;;;;10.79;100.00;99675.50;5019297;28;20421;-66
2022/11/16 02:46:38;;;;;;;29.37;16.00;;;;;;;10.77;100.00;99676.41;5035117;28;20527;-65
2022/11/16 02:49:09;;;;;;;27.80;16.02;;;;;;;10.74;100.00;99668.53;5039073;28;20732;-65
2022/11/16 02:51:36;;;;;;;30.38;17.30;;;;;;;10.71;100.00;99671.16;5030772;28;20024;-65
2022/11/16 02:54:07;;;;;;;27.08;16.15;;;;;;;10.69;100.00;99672.91;5021551;28;20036;-65
2022/11/16 02:56:41;;;;;;;32.72;16.88;;;;;;;10.67;100.00;99670.28;5020812;28;20033;-65
2022/11/16 02:59:08;;;;;;;35.20;17.92;;;;;;;10.65;100.00;99672.06;5025167;28;20100;-65
2022/11/16 03:01:38;;;;;;;30.75;17.35;;;;;;;10.63;100.00;99679.06;5024493;28;20541;-65
2022/11/16 03:04:15;;;;;;;32.65;16.33;;;;;;;10.65;100.00;99681.69;5021694;28;20408;-65
2022/11/16 03:06:44;;;;;;;23.90;16.05;;;;;;;10.64;100.00;99680.84;5027452;28;20108;-66
2022/11/16 03:09:18;;;;;;;28.75;15.45;;;;;;;10.60;100.00;99677.31;5035070;28;20034;-65
2022/11/16 03:11:58;;;;;;;24.13;14.55;;;;;;;10.59;100.00;99682.59;5032414;28;20461;-66
2022/11/16 03:14:28;;;;;;;22.95;13.15;;;;;;;10.54;100.00;99676.47;5034696;28;20025;-66
2022/11/16 03:16:57;;;;;;;20.25;11.57;;;;;;;10.51;100.00;99668.59;5024032;28;20045;-65
2022/11/16 03:19:32;;;;;;;19.65;11.82;;;;;;;10.48;100.00;99674.72;5028407;28;20384;-65
2022/11/16 03:22:06;;;;;;;21.50;10.05;;;;;;;10.38;100.00;99673.88;5027872;28;20030;-66
2022/11/16 03:24:31;;;;;;;16.20;10.00;;;;;;;10.37;100.00;99679.13;5013797;28;20037;-66
2022/11/16 03:27:03;;;;;;;21.30;9.38;;;;;;;10.33;100.00;99686.13;5024752;28;20121;-66
2022/11/16 03:30:05;;;;;;;17.10;9.27;;;;;;;10.31;100.00;99687.88;5032573;28;20025;-65
2022/11/16 03:32:33;;;;;;;21.25;8.70;;;;;;;10.30;100.00;99678.25;5023836;28;20034;-66
2022/11/16 03:35:16;;;;;;;17.85;7.43;;;;;;;10.24;100.00;99686.13;5030590;28;20037;-66
2022/11/16 03:37:43;;;;;;;18.67;6.90;;;;;;;10.28;100.00;99682.59;5032263;28;20040;-65
2022/11/16 03:40:11;;;;;;;10.55;6.63;;;;;;;10.26;100.00;99689.63;5027949;28;20036;-66
2022/11/16 03:42:38;;;;;;;20.60;7.50;;;;;;;10.25;100.00;99686.09;5029223;28;20036;-66
2022/11/16 03:45:04;;;;;;;12.15;6.75;;;;;;;10.22;100.00;99686.13;5025397;28;20030;-65
2022/11/16 03:47:29;;;;;;;16.20;6.47;;;;;;;10.19;100.00;99687.91;5022962;28;20420;-64
2022/11/16 03:49:55;;;;;;;12.15;6.90;;;;;;;10.21;100.00;99691.38;5037094;28;20676;-65
2022/11/16 03:52:20;;;;;;;18.98;6.05;;;;;;;10.21;100.00;99691.38;5028217;28;20022;-65
2022/11/16 03:54:45;;;;;;;17.25;6.22;;;;;;;10.20;100.00;99690.53;5043662;28;20028;-66
2022/11/16 03:57:14;;;;;;;13.27;5.60;;;;;;;10.19;100.00;99691.38;5039814;28;20049;-65
2022/11/16 03:59:41;;;;;;;19.05;6.15;;;;;;;10.16;100.00;99693.13;5041813;28;20471;-65
2022/11/16 04:02:07;;;;;;;12.85;5.40;;;;;;;10.10;100.00;99689.63;5037015;28;20021;-65
2022/11/16 04:29:10;;;;;;;14.98;6.78;;;;;;;10.09;100.00;99716.81;5047315;28;20099;-66
2022/11/16 04:39:47;;;;;;;15.13;6.80;;;;;;;10.07;100.00;99710.66;5029578;28;20116;-64
2022/11/16 04:42:18;;;;;;;13.25;6.85;;;;;;;10.03;100.00;99714.16;5036857;28;20506;-65
2022/11/16 04:47:28;;;;;;;13.13;6.18;;;;;;;10.04;100.00;99715.94;5024893;28;20063;-66
2022/11/16 04:49:53;;;;;;;17.15;6.70;;;;;;;10.00;100.00;99716.81;5040211;28;20028;-65
2022/11/16 04:52:18;;;;;;;15.85;6.30;;;;;;;9.97;100.00;99714.19;5030641;28;20033;-66
2022/11/16 04:54:44;;;;;;;12.38;6.05;;;;;;;9.96;100.00;99701.91;5032232;28;20028;-65
2022/11/16 04:57:09;;;;;;;13.45;6.38;;;;;;;9.92;100.00;99711.53;5030713;28;20129;-66
2022/11/16 04:59:34;;;;;;;14.80;7.05;;;;;;;9.91;100.00;99714.16;5026719;28;20105;-65
2022/11/16 05:02:09;;;;;;;11.65;7.20;;;;;;;9.89;100.00;99710.63;5016267;28;20084;-65
2022/11/16 05:04:39;;;;;;;12.85;6.88;;;;;;;9.86;100.00;99715.91;5021616;28;20030;-66
2022/11/16 05:07:09;;;;;;;11.63;5.55;;;;;;;9.86;100.00;99715.91;5024178;28;20084;-66
2022/11/16 05:09:38;;;;;;;12.77;6.45;;;;;;;9.83;100.00;99706.25;5034666;28;20025;-66
2022/11/16 05:12:04;;;;;;;16.50;6.45;;;;;;;9.81;100.00;99710.66;5042871;28;20045;-66
2022/11/16 05:14:29;;;;;;;16.15;7.03;;;;;;;9.77;100.00;99712.38;5032775;28;20387;-66
2022/11/16 05:16:55;;;;;;;19.77;6.60;;;;;;;9.77;100.00;99711.53;5035128;28;20080;-66
2022/11/16 05:22:04;;;;;;;13.15;6.47;;;;;;;9.72;100.00;99718.50;5052163;28;20027;-65
2022/11/16 05:24:35;;;;;;;18.33;6.50;;;;;;;9.70;100.00;99715.88;5027539;28;20025;-65
2022/11/16 05:27:03;;;;;;;12.20;6.35;;;;;;;9.69;100.00;99715.88;5040610;28;20022;-65
2022/11/16 05:29:29;;;;;;;16.42;6.82;;;;;;;9.71;100.00;99722.91;5033435;28;20120;-66
2022/11/16 05:31:54;;;;;;;14.57;6.63;;;;;;;9.67;100.00;99717.63;5022142;28;20112;-65
2022/11/16 05:34:19;;;;;;;19.13;7.05;;;;;;;9.65;100.00;99716.75;5021475;28;20037;-65
2022/11/16 05:36:45;;;;;;;20.92;6.53;;;;;;;9.63;100.00;99722.00;5032068;28;20025;-64
2022/11/16 05:39:11;;;;;;;17.52;6.93;;;;;;;9.61;100.00;99726.38;5036885;28;20060;-66
2022/11/16 05:41:36;;;;;;;15.50;6.78;;;;;;;9.57;100.00;99719.34;5031011;28;20078;-67
2022/11/16 05:44:02;;;;;;;10.95;6.60;;;;;;;9.51;100.00;99720.22;5031990;28;20515;-65
2022/11/16 05:46:28;;;;;;;15.60;6.85;;;;;;;9.50;100.00;99722.84;5030611;28;20060;-66
2022/11/16 05:48:53;;;;;;;11.73;6.22;;;;;;;9.44;100.00;99724.56;5035338;28;20104;-66
2022/11/16 05:51:18;;;;;;;16.40;6.47;;;;;;;9.40;100.00;99725.44;5017456;28;20070;-65
2022/11/16 05:53:44;;;;;;;14.57;5.80;;;;;;;9.38;100.00;99724.53;5029528;28;20478;-65
2022/11/16 05:56:10;;;;;;;12.50;5.50;;;;;;;9.38;100.00;99726.31;5019715;28;20033;-66
2022/11/16 05:58:36;;;;;;;8.27;5.03;;;;;;;9.37;100.00;99728.06;5028022;28;20042;-65
2022/11/16 06:01:02;;;;;;;17.85;5.72;;;;;;;9.28;100.00;99722.78;5025663;28;20377;-66
2022/11/16 06:03:29;;;;;;;12.73;5.57;;;;;;;9.22;100.00;99720.97;5029424;28;20040;-66
2022/11/16 06:05:55;;;;;;;9.05;4.03;;;;;;;9.21;100.00;99731.47;5014753;28;20441;-65
2022/11/16 06:08:20;;;;;;;12.93;4.25;;;;;;;9.15;100.00;99731.47;5018701;28;20033;-66
2022/11/16 06:10:46;;;;;;;11.57;3.90;;;;;;;9.10;100.00;99740.19;5025659;28;20030;-65
2022/11/16 06:13:11;;;;;;;12.98;4.43;;;;;;;9.10;100.00;99742.81;5022844;28;20541;-66
2022/11/16 06:15:37;;;;;;;14.13;3.45;;;;;;;8.98;100.00;99742.78;5019807;28;20049;-66
2022/11/16 06:18:02;;;;;;;6.30;3.10;;;;;;;8.98;100.00;99744.50;5023495;28;20032;-64
2022/11/16 06:20:28;;;;;;;11.60;3.75;;;;;;;8.98;100.00;99734.91;5029597;28;20026;-66
2022/11/16 06:22:53;;;;;;;8.30;3.22;;;;;;;8.93;100.00;99737.47;5020493;28;20029;-66
2022/11/16 06:25:18;;;;;;;12.20;3.45;;;;;;;8.84;100.00;99747.06;5030157;28;20375;-66
2022/11/16 06:27:44;;;;;;;14.20;3.30;;;;;;;8.81;100.00;99742.66;5026054;28;20409;-65
2022/11/16 06:30:09;;;;;;;8.27;3.38;;;;;;;8.78;100.00;99754.00;5031330;28;20338;-65
2022/11/16 06:32:35;;;;;;;10.77;3.03;;;;;;;8.73;100.00;99755.72;5019083;28;20056;-65
2022/11/16 06:35:00;;;;;;;13.93;3.00;;;;;;;8.70;100.00;99750.47;5025648;28;20398;-66
2022/11/16 06:37:25;;;;;;;12.70;3.70;;;;;;;8.66;100.00;99746.06;5034518;28;20052;-65
2022/11/16 06:39:51;;;;;;;10.30;2.95;;;;;;;8.62;100.00;99736.44;5031364;28;20040;-66
2022/11/16 06:42:16;;;;;;;7.90;2.97;;;;;;;8.63;100.00;99748.69;5024558;28;20030;-66
2022/11/16 06:44:41;;;;;;;18.70;3.08;;;;;;;8.64;100.00;99755.69;5041764;28;20043;-65
2022/11/16 06:47:06;;;;;;;10.52;4.32;;;;;;;8.60;100.00;99764.41;5027800;28;20029;-65
2022/11/16 06:49:33;;;;;;;7.38;3.08;;;;;;;8.56;100.00;99763.50;5025274;28;20024;-66
2022/11/16 06:51:58;;;;;;;9.40;2.75;;;;;;;8.54;100.00;99764.34;5025299;28;20030;-65
2022/11/16 06:54:23;;;;;;;14.63;3.30;;;;;;;8.60;100.00;99767.03;5027635;28;20032;-66
2022/11/16 06:56:49;;;;;;;7.47;2.88;;;;;;;8.56;100.00;99762.59;5025682;28;20049;-66
2022/11/16 06:59:14;;;;;;;12.13;2.53;;;;;;;8.57;100.00;99766.97;5026573;28;20030;-65
2022/11/16 07:01:39;;;;;;;9.73;3.20;;;;;;;8.53;100.00;99770.44;5028489;28;20112;-66
2022/11/16 07:04:04;;;;;;;13.82;3.17;;;;;;;8.48;100.00;99769.53;5023975;28;20033;-67
2022/11/16 07:06:30;;;;;;;8.20;2.55;;;;;;;8.51;100.00;99769.56;5032998;28;20033;-66
2022/11/16 07:08:55;;;;;;;10.07;2.70;;;;;;;8.49;100.00;99776.53;5031320;28;20025;-66
2022/11/16 07:11:21;;;;;;;10.15;2.80;;;;;;;8.51;100.00;99777.44;5034427;28;20036;-68
2022/11/16 07:13:48;;;;;;;19.33;2.78;;;;;;;8.51;100.00;99775.69;5034128;28;20040;-67
2022/11/16 07:16:13;;;;;;;9.43;2.78;;;;;;;8.50;100.00;99773.91;5038952;28;20574;-67
2022/11/16 07:18:40;;;;;;;13.05;2.95;;;;;;;8.52;100.00;99768.69;5028111;28;20053;-67
2022/11/16 07:21:10;;;;;;;9.65;2.60;;;;;;;8.52;100.00;99782.69;5041614;28;20055;-66
2022/11/16 07:23:36;;;;;;;18.23;2.88;;;;;;;8.53;100.00;99786.16;5042106;28;20059;-66
2022/11/16 07:26:06;;;;;;;6.75;2.30;;;;;;;8.50;100.00;99783.53;5040710;28;20510;-67
2022/11/16 07:28:32;;;;;;;13.55;2.50;;;;;;;8.55;100.00;99782.69;5042651;28;20665;-67
2022/11/16 07:31:08;;;;;;;16.23;3.00;;;;;;;8.50;100.00;99783.53;5040414;28;20041;-67
2022/11/16 07:33:35;;;;;;;9.48;2.78;;;;;;;8.45;100.00;99780.88;5040659;28;20040;-66
2022/11/16 07:36:04;;;;;;;12.07;3.08;;;;;;;8.44;100.00;99790.44;5023880;28;20025;-74
2022/11/16 07:38:31;;;;;;;7.53;2.60;;;;;;;8.50;100.00;99786.16;5027055;28;20026;-66
2022/11/16 07:41:05;;;;;;;10.98;2.88;;;;;;;8.46;100.00;99792.25;5023465;28;20100;-65
2022/11/16 07:43:36;;;;;;;9.35;3.25;;;;;;;8.50;100.00;99797.50;5022823;28;20061;-65
2022/11/16 07:46:06;;;;;;;12.48;3.40;;;;;;;8.55;100.00;99800.19;5019958;28;20026;-66
2022/11/16 07:48:32;;;;;;;14.88;2.80;;;;;;;8.54;100.00;99806.28;5033307;28;20026;-65
2022/11/16 07:51:02;;;;;;;16.27;3.83;;;;;;;8.48;100.00;99807.13;5032356;28;20025;-65
2022/11/16 07:53:29;;;;;;;7.03;3.13;;;;;;;8.51;100.00;99806.28;5015831;28;20034;-65
2022/11/16 07:55:55;;;;;;;12.85;3.38;;;;;;;8.62;100.00;99808.97;5016140;28;20153;-65
2022/11/16 07:58:20;;;;;;;6.35;2.72;;;;;;;8.61;100.00;99810.72;5014840;28;20125;-64
2022/11/16 08:00:46;;;;;;;16.30;3.50;;;;;;;8.65;100.00;99822.09;5019529;28;20389;-65
2022/11/16 08:03:11;;;;;;;9.35;2.85;;;;;;;8.68;100.00;99823.03;5028406;28;20044;-65
2022/11/16 08:05:37;;;;;;;13.20;3.10;;;;;;;8.67;100.00;99818.63;5033447;28;20030;-65
2022/11/16 08:08:02;;;;;;;10.35;3.45;;;;;;;8.68;100.00;99820.41;5019707;28;20026;-66
2022/11/16 08:10:29;;;;;;;10.50;2.40;;;;;;;8.70;100.00;99816.03;5017964;28;20021;-65
2022/11/16 08:12:55;;;;;;;9.15;3.10;;;;;;;8.74;100.00;99820.44;5045083;28;20540;-65
2022/11/16 08:15:21;;;;;;;10.10;2.53;;;;;;;8.71;100.00;99815.16;5037718;28;20174;-64
2022/11/16 08:17:46;;;;;;;11.55;3.33;;;;;;;8.79;100.00;99812.63;5045213;28;20030;-64
2022/11/16 08:20:11;;;;;;;13.00;3.50;;;;;;;8.80;100.00;99816.09;5043515;28;20092;-65
2022/11/16 08:22:37;;;;;;;20.58;3.95;;;;;;;8.86;100.00;99824.03;5014566;28;20033;-65
2022/11/16 08:25:03;;;;;;;14.35;3.35;;;;;;;8.88;100.00;99817.91;5021337;28;20026;-65
2022/11/16 08:27:30;;;;;;;18.85;3.60;;;;;;;8.91;100.00;99822.28;5026322;28;20470;-65
2022/11/16 08:29:55;;;;;;;9.57;3.67;;;;;;;8.97;100.00;99831.94;5016415;28;20088;-65
2022/11/16 08:32:20;;;;;;;19.08;3.72;;;;;;;8.98;100.00;99823.22;5020658;28;20030;-65
2022/11/16 08:34:46;;;;;;;8.75;3.95;;;;;;;9.00;100.00;99821.50;5032884;28;20488;-65
2022/11/16 08:37:11;;;;;;;16.35;3.70;;;;;;;9.04;100.00;99828.50;5024582;28;20030;-64
2022/11/16 08:39:36;;;;;;;16.75;4.05;;;;;;;9.05;100.00;99825.91;5031314;28;20025;-65
2022/11/16 08:42:02;;;;;;;13.90;4.05;;;;;;;9.11;100.00;99815.44;5018557;28;20143;-65
2022/11/16 08:44:27;;;;;;;10.80;3.13;;;;;;;9.17;100.00;99825.09;5029393;28;20029;-65
2022/11/16 08:46:52;;;;;;;15.38;3.63;;;;;;;9.17;100.00;99819.84;5032657;28;20017;-66
2022/11/16 08:49:18;;;;;;;12.20;3.03;;;;;;;9.21;100.00;99820.72;5027684;28;20104;-67
2022/11/16 08:51:43;;;;;;;11.32;3.67;;;;;;;9.24;100.00;99821.63;5032628;28;20020;-65
2022/11/16 08:54:09;;;;;;;12.38;2.88;;;;;;;9.25;100.00;99823.41;5027829;28;20029;-66
2022/11/16 08:56:34;;;;;;;9.10;3.00;;;;;;;9.35;100.00;99824.31;4991133;28;1079625;-67
2022/11/16 08:58:59;;;;;;;12.43;3.33;;;;;;;9.38;100.00;99823.44;5040075;28;20079;-66
2022/11/16 09:01:27;;;;;;;12.43;2.80;;;;;;;9.45;100.00;99823.50;5034904;28;20033;-66
2022/11/16 09:03:53;;;;;;;15.48;3.33;;;;;;;9.53;100.00;99822.66;5030592;28;20394;-66
2022/11/16 09:06:18;;;;;;;18.77;3.40;;;;;;;9.69;100.00;99824.44;5053703;28;20028;-65
2022/11/16 09:08:45;;;;;;;9.48;3.03;;;;;;;9.71;100.00;99827.09;5020144;28;20025;-66
2022/11/16 09:11:14;;;;;;;12.57;3.08;;;;;;;9.88;100.00;99824.53;5022856;28;20032;-66
2022/11/16 09:13:40;;;;;;;13.30;3.60;;;;;;;10.08;100.00;99827.22;5034042;28;20736;-66
2022/11/16 09:16:05;;;;;;;12.23;3.13;;;;;;;10.14;100.00;99819.31;5037631;28;20084;-66
2022/11/16 09:18:32;;;;;;;6.32;2.88;;;;;;;10.37;100.00;99827.25;5024753;28;20513;-67
2022/11/16 09:20:58;;;;;;;8.38;2.67;;;;;;;10.49;100.00;99828.16;5019660;28;20045;-65
2022/11/16 09:23:23;;;;;;;9.43;2.95;;;;;;;10.59;100.00;99829.91;5047151;28;20063;-66
2022/11/16 09:25:49;;;;;;;8.77;3.15;;;;;;;10.69;100.00;99834.31;5023417;28;20029;-66
2022/11/16 09:28:15;;;;;;;8.90;3.08;;;;;;;10.81;100.00;99833.41;5018227;28;20108;-66
2022/11/16 09:30:42;;;;;;;12.07;2.65;;;;;;;10.91;100.00;99842.19;5019833;28;20034;-66
2022/11/16 09:33:08;;;;;;;8.77;2.85;;;;;;;10.89;100.00;99826.41;5029181;28;20431;-66
2022/11/16 09:35:34;;;;;;;10.48;2.85;;;;;;;10.72;100.00;99839.56;5029747;28;20092;-66
2022/11/16 09:37:59;;;;;;;12.60;3.20;;;;;;;10.60;100.00;99836.94;5024553;28;20095;-65
2022/11/16 09:40:37;;;;;;;9.38;3.28;;;;;;;10.56;100.00;99840.44;5022522;28;20072;-66
2022/11/16 09:43:05;;;;;;;7.97;3.53;;;;;;;10.61;100.00;99838.69;5032231;28;20112;-66
2022/11/16 09:46:02;;;;;;;10.98;3.58;;;;;;;10.73;100.00;99848.31;5038832;28;20088;-66
2022/11/16 09:48:31;;;;;;;10.82;3.92;;;;;;;10.82;100.00;99844.81;5025169;28;20107;-67
2022/11/16 09:51:00;;;;;;;11.25;4.07;;;;;;;10.87;100.00;99848.34;5021831;28;20465;-65
2022/11/16 09:53:34;;;;;;;12.55;4.43;;;;;;;10.77;100.00;99840.44;5030950;28;20033;-67
2022/11/16 09:56:11;;;;;;;12.38;3.65;;;;;;;11.07;100.00;99843.91;5031824;28;20051;-66
2022/11/16 09:59:02;;;;;;;11.93;3.75;;;;;;;11.22;100.00;99847.41;5031644;28;20047;-66
2022/11/16 10:01:35;;;;;;;10.40;4.03;;;;;;;11.48;100.00;99845.56;5021353;28;20029;-66
2022/11/16 10:04:06;;;;;;;10.07;3.88;;;;;;;11.81;100.00;99848.06;5023948;28;20025;-66
2022/11/16 10:06:44;;;;;;;7.40;3.10;;;;;;;11.82;100.00;99840.16;5015982;28;20072;-68
2022/11/16 10:09:11;;;;;;;11.75;3.28;;;;;;;11.77;100.00;99848.97;5021130;28;20077;-67
2022/11/16 10:11:54;;;;;;;9.73;4.22;;;;;;;11.76;100.00;99845.47;5018406;28;20030;-67
2022/11/16 10:14:28;;;;;;;8.67;3.60;;;;;;;12.16;100.00;99847.03;5030504;28;20037;-66
2022/11/16 10:17:12;;;;;;;7.40;3.55;;;;;;;12.29;100.00;99839.94;5030593;28;20032;-68
2022/11/16 10:19:55;;;;;;;11.88;3.65;;;;;;;12.44;100.00;99834.53;5022421;28;20038;-68
2022/11/16 10:22:41;;;;;;;13.90;3.17;;;;;;;12.55;100.00;99842.38;5032514;28;20417;-67
2022/11/16 10:25:15;;;;;;;12.30;3.70;;;;;;;12.51;100.00;99840.66;5035160;28;20371;-67
2022/11/16 10:27:48;;;;;;;9.20;2.90;;;;;;;12.76;100.00;99833.41;5026728;28;20036;-67
2022/11/16 10:30:20;;;;;;;8.30;3.38;;;;;;;13.02;100.00;99842.84;5032153;28;20034;-67
2022/11/16 10:32:58;;;;;;;12.15;3.63;;;;;;;13.08;100.00;99847.22;5025031;28;20026;-68
2022/11/16 10:35:36;;;;;;;11.05;3.38;;;;;;;13.27;100.00;99832.06;5037319;28;20057;-68
2022/11/16 10:38:10;;;;;;;13.52;4.10;;;;;;;13.45;100.00;99837.13;5043701;28;20364;-67
2022/11/16 10:40:37;;;;;;;10.68;2.83;;;;;;;13.60;100.00;99835.22;5051595;28;20369;-68
2022/11/16 10:43:13;;;;;;;8.27;2.35;;;;;;;13.94;100.00;99835.66;5046405;28;20393;-67
2022/11/16 10:46:11;;;;;;;6.03;1.85;;;;;;;14.20;100.00;99841.47;5028538;28;20049;-67
2022/11/16 10:48:59;;;;;;;5.28;2.38;;;;;;;14.30;100.00;99838.69;5023882;28;20048;-67
2022/11/16 10:51:24;;;;;;;10.63;2.78;;;;;;;14.46;100.00;99836.69;5028043;28;20047;-67
2022/11/16 10:53:51;;;;;;;11.35;2.78;;;;;;;14.48;100.00;99837.50;5015036;28;20025;-67
2022/11/16 10:56:22;;;;;;;9.95;2.42;;;;;;;14.72;100.00;99834.53;5020080;28;20026;-68
2022/11/16 10:59:17;;;;;;;7.28;2.42;;;;;;;15.04;100.00;99841.03;5023303;28;20037;-67
2022/11/16 11:01:52;;;;;;;8.48;2.95;;;;;;;15.21;99.67;99830.16;5007802;28;20119;-67
2022/11/16 11:04:21;;;;;;;6.75;2.28;;;;;;;15.28;99.43;99835.28;5016677;28;20040;-68
2022/11/16 11:06:58;;;;;;;12.60;2.63;;;;;;;15.54;98.61;99835.69;5024390;28;20093;-67
2022/11/16 11:09:31;;;;;;;12.43;2.40;;;;;;;15.40;95.76;99842.13;5016809;28;20095;-68
2022/11/16 11:12:38;;;;;;;7.13;2.72;;;;;;;15.35;95.51;99836.03;5033035;28;20425;-67
2022/11/16 11:15:05;;;;;;;8.82;1.85;;;;;;;15.29;96.72;99846.78;5026201;28;20029;-68
2022/11/16 11:17:33;;;;;;;7.28;2.72;;;;;;;14.96;95.50;99844.72;5031878;28;20486;-68
2022/11/16 11:20:03;;;;;;;8.55;2.50;;;;;;;14.22;99.96;99839.69;5027690;28;20025;-69
2022/11/16 11:22:30;;;;;;;9.77;2.50;;;;;;;13.72;100.00;99839.50;5029034;28;20026;-68
2022/11/16 11:24:56;;;;;;;6.82;1.90;;;;;;;13.14;100.00;99842.75;5025590;28;20481;-67
2022/11/16 11:27:30;;;;;;;11.85;2.90;;;;;;;12.51;100.00;99842.41;5023776;28;20021;-68
2022/11/16 11:30:00;;;;;;;14.20;4.80;;;;;;;12.21;100.00;99842.63;5031513;28;20022;-67
2022/11/16 11:32:39;;;;;;;11.73;4.50;;;;;;;12.06;100.00;99834.78;5047074;28;20039;-67
2022/11/16 11:35:05;;;;;;;5.05;3.10;;;;;;;11.93;100.00;99841.88;5035308;28;20025;-67
2022/11/16 11:37:37;;;;;;;10.23;2.88;;;;;;;11.86;100.00;99840.16;5035092;28;20096;-69
2022/11/16 11:40:08;;;;;;;12.52;3.20;;;;;;;11.77;100.00;99831.41;5031094;28;20032;-68
2022/11/16 11:42:36;;;;;;;9.07;3.85;;;;;;;11.67;100.00;99834.97;5043640;28;20443;-67
2022/11/16 11:45:07;;;;;;;12.77;3.92;;;;;;;11.58;100.00;99832.34;5039244;28;20032;-68
2022/11/16 11:47:58;;;;;;;11.70;3.78;;;;;;;11.61;100.00;99829.69;5037622;28;20133;-68
2022/11/16 11:50:26;;;;;;;6.47;3.40;;;;;;;11.62;100.00;99826.19;5042792;28;20028;-67
2022/11/16 11:53:13;;;;;;;9.05;3.33;;;;;;;12.10;100.00;99818.94;5047977;28;20028;-68
2022/11/16 11:55:38;;;;;;;8.20;2.67;;;;;;;12.62;100.00;99816.81;5036056;28;20035;-68
2022/11/16 11:58:05;;;;;;;5.18;2.42;;;;;;;12.84;100.00;99816.63;5043337;28;20052;-66
2022/11/16 12:00:56;;;;;;;11.40;3.00;;;;;;;12.92;100.00;99809.50;5035069;28;20034;-68
2022/11/16 12:03:41;;;;;;;7.80;2.88;;;;;;;13.09;100.00;99802.28;5037469;28;20500;-68
2022/11/16 12:06:41;;;;;;;10.50;2.97;;;;;;;13.56;100.00;99801.78;5043072;28;20034;-69
2022/11/16 12:09:25;;;;;;;13.48;3.03;;;;;;;13.42;100.00;99804.59;5016628;28;20073;-68
2022/11/16 12:12:09;;;;;;;6.60;2.53;;;;;;;13.11;100.00;99802.28;5036918;28;20028;-68
2022/11/16 12:14:53;;;;;;;;;;;;;;;12.79;100.00;99808.75;5034530;28;20042;-68